createdAt,value
2019-05-23T00:00:50.830Z,78.43
2019-05-23T00:06:34.763Z,78.57
2019-05-23T00:12:34.985Z,78.91
2019-05-23T00:18:04.886Z,78.69
2019-05-23T00:23:28.852Z,79.09
2019-05-23T00:29:09.027Z,79.17
2019-05-23T00:34:21.818Z,79.72
2019-05-23T00:39:47.006Z,80.22
2019-05-23T00:45:12.596Z,80.40
2019-05-23T00:50:37.111Z,80.62
2019-05-23T00:56:02.647Z,81.04
2019-05-23T01:01:27.071Z,81.03
2019-05-23T01:06:50.887Z,80.96
2019-05-23T01:12:15.947Z,81.04
2019-05-23T01:17:40.757Z,80.78
2019-05-23T01:23:07.489Z,81.13
2019-05-23T01:28:32.086Z,81.17
2019-05-23T01:33:59.029Z,81.03
2019-05-23T01:39:23.386Z,80.99
2019-05-23T01:44:48.472Z,80.85
2019-05-23T01:50:14.131Z,80.86
2019-05-23T01:55:38.260Z,80.76
2019-05-23T02:01:02.442Z,81.02
2019-05-23T02:06:27.194Z,80.81
2019-05-23T02:11:52.265Z,80.93
2019-05-23T02:17:17.172Z,81.03
2019-05-23T02:22:42.421Z,81.08
2019-05-23T02:28:08.395Z,81.08
2019-05-23T02:33:33.597Z,81.25
2019-05-23T02:39:15.774Z,81.47
2019-05-23T02:44:39.577Z,81.90
2019-05-23T02:50:06.987Z,81.82
2019-05-23T02:55:36.036Z,82.26
2019-05-23T03:01:22.887Z,82.36
2019-05-23T03:06:48.042Z,82.87
2019-05-23T03:12:15.328Z,82.94
2019-05-23T03:17:43.071Z,83.18
2019-05-23T03:23:13.600Z,83.55
2019-05-23T03:28:40.757Z,83.12
2019-05-23T03:34:07.220Z,83.65
2019-05-23T03:39:32.137Z,83.65
2019-05-23T03:44:57.410Z,83.84
2019-05-23T03:50:21.724Z,83.79
2019-05-23T03:55:50.001Z,83.77
2019-05-23T04:01:15.823Z,83.88
2019-05-23T04:06:39.750Z,84.05
2019-05-23T04:12:04.277Z,84.19
2019-05-23T04:17:29.024Z,85.38
2019-05-23T04:22:54.749Z,85.43
2019-05-23T04:28:19.452Z,85.74
2019-05-23T04:33:43.567Z,86.16
2019-05-23T04:39:08.494Z,86.65
2019-05-23T04:44:33.107Z,86.72
2019-05-23T04:49:57.660Z,87.16
2019-05-23T04:55:23.473Z,88.36
2019-05-23T05:00:48.574Z,88.94
2019-05-23T05:06:12.481Z,89.50
2019-05-23T05:11:36.768Z,87.90
2019-05-23T05:17:01.953Z,88.48
2019-05-23T05:22:26.492Z,87.01
2019-05-23T05:27:51.241Z,78.45
2019-05-23T05:33:16.649Z,73.60
2019-05-23T05:38:40.905Z,67.03
2019-05-23T05:44:05.698Z,63.48
2019-05-23T05:49:29.927Z,61.93
2019-05-23T05:54:54.063Z,60.65
2019-05-23T06:00:32.641Z,56.36
2019-05-23T06:06:21.966Z,54.28
2019-05-23T06:11:47.001Z,53.79
2019-05-23T06:17:14.290Z,52.72
2019-05-23T06:22:38.803Z,51.77
2019-05-23T06:28:03.090Z,50.79
2019-05-23T06:33:28.442Z,51.62
2019-05-23T06:38:55.164Z,49.86
2019-05-23T06:44:19.880Z,48.18
2019-05-23T06:49:43.539Z,50.16
2019-05-23T06:55:08.325Z,49.31
2019-05-23T07:00:32.754Z,50.33
2019-05-23T07:05:58.589Z,46.99
2019-05-23T07:11:23.973Z,44.50
2019-05-23T07:16:50.202Z,44.34
2019-05-23T07:22:13.424Z,45.51
2019-05-23T07:27:38.639Z,48.95
2019-05-23T07:33:03.399Z,50.42
2019-05-23T07:38:27.494Z,49.71
2019-05-23T07:43:51.918Z,46.82
2019-05-23T07:49:16.544Z,46.76
2019-05-23T07:54:46.258Z,48.35
2019-05-23T08:00:18.244Z,49.17
2019-05-23T08:05:41.770Z,47.19
2019-05-23T08:11:05.602Z,46.41
2019-05-23T08:16:29.475Z,43.25
2019-05-23T08:21:53.468Z,39.79
2019-05-23T08:27:18.007Z,42.07
2019-05-23T08:32:43.839Z,45.37
2019-05-23T08:38:07.976Z,41.63
2019-05-23T08:43:32.834Z,39.43
2019-05-23T08:48:56.861Z,46.15
2019-05-23T08:54:21.793Z,43.20
2019-05-23T08:59:46.111Z,43.50
2019-05-23T09:05:11.613Z,42.67
2019-05-23T09:10:37.485Z,44.02
2019-05-23T09:16:02.456Z,41.21
2019-05-23T09:21:26.560Z,44.58
2019-05-23T09:26:52.130Z,43.63
2019-05-23T09:32:16.003Z,43.58
2019-05-23T09:37:41.078Z,42.67
2019-05-23T09:43:06.323Z,40.76
2019-05-23T09:48:30.582Z,37.98
2019-05-23T09:53:55.211Z,33.83
2019-05-23T09:59:19.713Z,32.00
2019-05-23T10:04:44.193Z,32.94
2019-05-23T10:10:10.582Z,34.04
2019-05-23T10:15:45.119Z,32.97
2019-05-23T10:21:09.420Z,29.67
2019-05-23T10:26:33.213Z,31.15
2019-05-23T10:31:57.636Z,33.33
2019-05-23T10:37:22.337Z,30.42
2019-05-23T10:42:48.150Z,30.39
2019-05-23T10:48:12.738Z,29.29
2019-05-23T10:53:37.928Z,28.38
2019-05-23T10:59:02.077Z,29.90
2019-05-23T11:04:25.494Z,29.39
2019-05-23T11:09:50.395Z,32.35
2019-05-23T11:15:16.785Z,32.24
2019-05-23T11:20:41.998Z,33.02
2019-05-23T11:26:09.274Z,32.72
2019-05-23T11:31:34.044Z,35.61
2019-05-23T11:36:58.724Z,33.17
2019-05-23T11:42:23.290Z,31.22
2019-05-23T11:47:48.061Z,31.67
2019-05-23T11:53:11.756Z,32.67
2019-05-23T11:58:37.091Z,30.03
2019-05-23T12:04:14.380Z,29.84
2019-05-23T12:09:39.608Z,29.35
2019-05-23T12:15:06.611Z,28.77
2019-05-23T12:20:30.386Z,29.12
2019-05-23T12:25:55.075Z,30.85
2019-05-23T12:31:19.358Z,32.01
2019-05-23T12:36:43.465Z,31.53
2019-05-23T12:42:07.994Z,33.60
2019-05-23T12:47:45.663Z,31.11
2019-05-23T12:53:12.590Z,32.64
2019-05-23T12:58:37.400Z,30.31
2019-05-23T13:04:02.232Z,30.59
2019-05-23T13:09:28.306Z,29.21
2019-05-23T13:14:58.167Z,27.79
2019-05-23T13:20:18.997Z,27.89
2019-05-23T13:25:43.503Z,28.47
2019-05-23T13:31:08.113Z,27.21
2019-05-23T13:36:31.996Z,26.03
2019-05-23T13:41:55.979Z,25.67
2019-05-23T13:47:20.510Z,25.92
2019-05-23T13:52:44.681Z,25.75
2019-05-23T13:58:08.526Z,27.27
2019-05-23T14:03:34.038Z,30.30
2019-05-23T14:08:58.496Z,30.30
2019-05-23T14:14:23.438Z,30.04
2019-05-23T14:19:50.028Z,28.86
2019-05-23T14:25:15.690Z,29.03
2019-05-23T14:30:58.062Z,29.52
2019-05-23T14:36:40.519Z,28.67
2019-05-23T14:42:10.468Z,27.29
2019-05-23T14:47:51.415Z,27.03
2019-05-23T14:53:18.445Z,27.47
2019-05-23T14:58:43.262Z,28.71
2019-05-23T15:04:07.983Z,28.10
2019-05-23T15:09:32.306Z,28.77
2019-05-23T15:14:56.051Z,27.37
2019-05-23T15:20:20.006Z,28.01
2019-05-23T15:25:43.833Z,30.49
2019-05-23T15:31:08.623Z,29.69
2019-05-23T15:36:33.278Z,27.70
2019-05-23T15:41:58.967Z,29.00
2019-05-23T15:47:26.085Z,30.55
2019-05-23T15:53:01.539Z,29.15
2019-05-23T15:58:37.645Z,28.49
2019-05-23T16:04:05.716Z,30.00
2019-05-23T16:09:31.141Z,28.53
2019-05-23T16:14:55.090Z,28.74
2019-05-23T16:20:20.028Z,30.65
2019-05-23T16:25:43.749Z,29.51
2019-05-23T16:31:08.531Z,30.12
2019-05-23T16:36:32.567Z,32.13
2019-05-23T16:41:56.587Z,33.40
2019-05-23T16:47:20.433Z,34.99
2019-05-23T16:52:44.709Z,34.32
2019-05-23T16:58:18.409Z,33.65
2019-05-23T17:03:57.609Z,33.83
2019-05-23T17:09:38.895Z,35.98
2019-05-23T17:15:08.850Z,36.93
2019-05-23T17:20:50.746Z,37.02
2019-05-23T17:26:23.974Z,38.32
2019-05-23T17:31:49.652Z,39.45
2019-05-23T17:37:13.883Z,39.76
2019-05-23T17:42:38.054Z,41.08
2019-05-23T17:48:03.553Z,41.69
2019-05-23T17:53:28.272Z,42.99
2019-05-23T17:58:53.113Z,43.26
2019-05-23T18:04:18.562Z,42.58
2019-05-23T18:09:42.442Z,43.99
2019-05-23T18:15:10.080Z,45.24
2019-05-23T18:20:35.596Z,44.70
2019-05-23T18:26:00.261Z,46.53
2019-05-23T18:31:27.822Z,46.68
2019-05-23T18:36:52.337Z,47.66
2019-05-23T18:42:16.710Z,47.17
2019-05-23T18:47:43.934Z,48.19
2019-05-23T18:53:09.774Z,48.15
2019-05-23T18:58:34.159Z,51.17
2019-05-23T19:03:59.065Z,53.34
2019-05-23T19:09:23.989Z,53.71
2019-05-23T19:14:47.675Z,54.34
2019-05-23T19:20:13.736Z,56.19
2019-05-23T19:25:38.642Z,58.70
2019-05-23T19:31:04.053Z,55.92
2019-05-23T19:36:28.430Z,56.16
2019-05-23T19:41:52.496Z,56.20
2019-05-23T19:47:17.535Z,56.20
2019-05-23T19:52:41.445Z,56.41
2019-05-23T19:58:06.217Z,57.31
2019-05-23T20:03:32.806Z,58.70
2019-05-23T20:08:57.622Z,59.59
2019-05-23T20:14:22.422Z,61.61
2019-05-23T20:19:50.310Z,61.88
2019-05-23T20:25:13.900Z,63.16
2019-05-23T20:30:59.511Z,64.11
2019-05-23T20:36:23.738Z,66.03
2019-05-23T20:41:48.268Z,65.71
2019-05-23T20:47:13.880Z,66.92
2019-05-23T20:52:37.949Z,67.35
2019-05-23T20:58:02.710Z,68.52
2019-05-23T21:03:28.258Z,69.69
2019-05-23T21:08:51.894Z,71.21
2019-05-23T21:14:16.719Z,72.21
2019-05-23T21:19:40.809Z,72.81
2019-05-23T21:25:05.513Z,74.57
2019-05-23T21:30:30.415Z,74.02
2019-05-23T21:35:55.105Z,75.77
2019-05-23T21:41:18.745Z,76.13
2019-05-23T21:46:43.563Z,77.78
2019-05-23T21:52:08.342Z,78.54
2019-05-23T21:57:32.999Z,78.63
2019-05-23T22:02:58.935Z,80.87
2019-05-23T22:08:22.912Z,80.80
2019-05-23T22:13:47.061Z,82.47
2019-05-23T22:19:15.302Z,82.68
2019-05-23T22:24:39.250Z,81.60
2019-05-23T22:30:05.222Z,82.29
2019-05-23T22:35:29.895Z,84.22
2019-05-23T22:40:54.444Z,84.57
2019-05-23T22:46:20.911Z,87.66
2019-05-23T22:51:45.567Z,88.32
2019-05-23T22:57:10.206Z,86.97
2019-05-23T23:02:34.216Z,87.28
2019-05-23T23:07:59.087Z,86.98
2019-05-23T23:13:37.635Z,88.26
2019-05-23T23:18:49.533Z,89.26
2019-05-23T23:24:13.546Z,90.54
2019-05-23T23:29:37.761Z,90.39
2019-05-23T23:35:01.899Z,91.79
2019-05-23T23:40:25.621Z,93.22
2019-05-23T23:46:08.582Z,92.23
2019-05-23T23:51:50.367Z,90.93
2019-05-23T23:57:32.879Z,92.22
